CheckWX is a tool to help pilots better visualize weather data.  It is not intended as a substitute for an official pre-flight weather briefing.

05:44:56 UTC

HESG METAR
Sohag Airport
Sohag, Egypt
Current

45 mins ago

HESG 200500Z 27005KT CAVOK 07/02 Q1020 NOSIG
Observed
Feb-20 @ 05:00 UTC
Wind
  • 270° at 5 KTS
Visibility
10,000+ meters
Flight Rules
VFR
Cloud Levels
  • Clear skies
Temperature
C / 45°F
Dewpoint
C / 36°F
Humidity
71%
Altimeter
30.12" Hg
Pressure
1019.92 hPa
Previous

2 hours ago

HESG 200400Z 28005KT CAVOK 07/02 Q1020 NOSIG
Observed
Feb-20 @ 04:00 UTC
Wind
  • 280° at 5 KTS
Visibility
10,000+ meters
Flight Rules
VFR
Cloud Levels
  • Clear skies
Temperature
C / 45°F
Dewpoint
C / 36°F
Humidity
71%
Altimeter
30.12" Hg
Pressure
1019.92 hPa
Previous

3 hours ago

HESG 200300Z 27006KT CAVOK 08/02 Q1020 NOSIG
Observed
Feb-20 @ 03:00 UTC
Wind
  • 270° at 6 KTS
Visibility
10,000+ meters
Flight Rules
VFR
Cloud Levels
  • Clear skies
Temperature
C / 46°F
Dewpoint
C / 36°F
Humidity
66%
Altimeter
30.12" Hg
Pressure
1019.92 hPa